Time;durP1;ratioP1;P1;durP2;ratioP2;P2;SDS_P1;SDS_P2;PMS_P1;PMS_P2;Temp;Humidity;BMP_temperature;BMP_pressure;BME280_temperature;BME280_humidity;BME280_pressure;Samples;Min_cycle;Max_cycle;Signal;HPM_P1;HPM_P2
2023/03/16 00:01:25;;;;;;;;;;;;;;;4.45;75.72;101843.03;5045298;28;19921;-56
2023/03/16 00:03:50;;;;;;;;;;;;;;;4.46;76.05;101839.72;5044680;28;19917;-57
2023/03/16 00:06:16;;;;;;;;;;;;;;;4.49;76.08;101843.38;5042690;28;19928;-57
2023/03/16 00:08:42;;;;;;;;;;;;;;;4.50;76.06;101829.84;5046437;28;19931;-56
2023/03/16 00:11:07;;;;;;;;;;;;;;;4.57;76.25;101828.59;5044874;28;20373;-57
2023/03/16 00:13:32;;;;;;;;;;;;;;;4.60;75.95;101833.00;5046079;28;19966;-56
2023/03/16 00:16:04;;;;;;;;;;;;;;;4.62;76.00;101822.16;5046741;28;19932;-56
2023/03/16 00:18:38;;;;;;;;;;;;;;;4.65;76.54;101824.88;5045340;28;20294;-56
2023/03/16 00:21:04;;;;;;;;;;;;;;;4.66;76.61;101824.09;5044481;28;19927;-56
2023/03/16 00:23:34;;;;;;;;;;;;;;;4.68;76.32;101820.00;5045089;28;20356;-57
2023/03/16 00:26:01;;;;;;;;;;;;;;;4.71;76.31;101817.66;5045604;28;20383;-56
2023/03/16 00:28:28;;;;;;;;;;;;;;;4.74;76.67;101822.97;5048577;28;19912;-56
2023/03/16 00:30:57;;;;;;;;;;;;;;;4.73;76.75;101805.94;5037671;28;19921;-56
2023/03/16 00:33:23;;;;;;;;;;;;;;;4.76;76.30;101805.22;5044598;28;20471;-56
2023/03/16 00:35:48;;;;;;;;;;;;;;;4.76;76.44;101803.56;5045560;28;20023;-57
2023/03/16 00:38:14;;;;;;;;;;;;;;;4.76;76.42;101806.09;5045847;28;20401;-57
2023/03/16 00:40:39;;;;;;;;;;;;;;;4.77;76.35;101801.91;5046675;28;19960;-56
2023/03/16 00:43:05;;;;;;;;;;;;;;;4.79;76.21;101802.88;5045050;28;19921;-57
2023/03/16 00:45:31;;;;;;;;;;;;;;;4.79;76.20;101802.88;5046034;28;19921;-56
2023/03/16 00:47:57;;;;;;;;;;;;;;;4.80;75.98;101797.91;5045684;28;19936;-56
2023/03/16 00:50:22;;;;;;;;;;;;;;;4.81;76.45;101789.47;5046707;28;20302;-56
2023/03/16 00:52:48;;;;;;;;;;;;;;;4.81;76.32;101781.81;5043035;28;19951;-57
2023/03/16 00:55:13;;;;;;;;;;;;;;;4.80;76.36;101779.19;5028937;28;19978;-56
2023/03/16 00:57:38;;;;;;;;;;;;;;;4.81;76.22;101780.94;5046308;28;19932;-56
2023/03/16 01:00:15;;;;;;;;;;;;;;;4.83;76.59;101776.81;5029829;28;19917;-56
2023/03/16 01:02:44;;;;;;;;;;;;;;;4.82;76.57;101775.06;5039866;28;19917;-56
2023/03/16 01:05:09;;;;;;;;;;;;;;;4.80;76.63;101774.97;5043187;28;19929;-57
2023/03/16 01:07:35;;;;;;;;;;;;;;;4.80;76.81;101766.44;5048430;28;19920;-56
2023/03/16 01:10:00;;;;;;;;;;;;;;;4.79;77.23;101755.38;5050373;28;20432;-56
2023/03/16 01:12:26;;;;;;;;;;;;;;;4.80;77.08;101752.03;5048204;28;19924;-56
2023/03/16 01:14:52;;;;;;;;;;;;;;;4.80;76.76;101758.78;5049721;28;19956;-57
2023/03/16 01:17:18;;;;;;;;;;;;;;;4.79;77.16;101752.81;5048698;28;20066;-56
2023/03/16 01:19:43;;;;;;;;;;;;;;;4.80;76.99;101746.94;5050399;28;20387;-57
2023/03/16 01:22:10;;;;;;;;;;;;;;;4.79;76.84;101742.63;5031789;28;20369;-57
2023/03/16 01:24:35;;;;;;;;;;;;;;;4.79;77.15;101734.97;5047970;28;19921;-56
2023/03/16 01:27:01;;;;;;;;;;;;;;;4.79;77.18;101734.06;5049506;28;19931;-57
2023/03/16 01:29:26;;;;;;;;;;;;;;;4.78;77.26;101733.19;5032628;28;19967;-56
2023/03/16 01:31:51;;;;;;;;;;;;;;;4.77;77.20;101733.09;5049576;28;19924;-56
2023/03/16 01:34:17;;;;;;;;;;;;;;;4.78;77.42;101728.09;5047676;28;20016;-59
2023/03/16 01:36:43;;;;;;;;;;;;;;;4.79;77.33;101732.44;5046018;28;19944;-56
2023/03/16 01:39:11;;;;;;;;;;;;;;;4.78;77.42;101730.66;5046806;28;20035;-57
2023/03/16 01:41:37;;;;;;;;;;;;;;;4.80;77.16;101731.66;5048661;28;20305;-57
2023/03/16 01:44:02;;;;;;;;;;;;;;;4.81;77.47;101728.31;5048501;28;19917;-56
2023/03/16 01:46:28;;;;;;;;;;;;;;;4.84;77.26;101727.63;5047537;28;19917;-56
2023/03/16 01:49:00;;;;;;;;;;;;;;;4.84;77.36;101732.72;5049085;28;19923;-57
2023/03/16 01:51:32;;;;;;;;;;;;;;;4.83;77.09;101724.19;5049457;28;19974;-58
2023/03/16 01:54:01;;;;;;;;;;;;;;;4.86;77.24;101725.19;5048524;28;20030;-60
2023/03/16 01:56:38;;;;;;;;;;;;;;;4.87;77.23;101717.63;5047179;28;20484;-58
2023/03/16 01:59:06;;;;;;;;;;;;;;;4.86;77.27;101710.78;5047865;28;19923;-60
2023/03/16 02:01:31;;;;;;;;;;;;;;;4.86;77.58;101722.63;5049095;28;19917;-65
2023/03/16 02:04:03;;;;;;;;;;;;;;;4.82;77.68;101717.31;5049204;28;20062;-56
2023/03/16 02:06:29;;;;;;;;;;;;;;;4.80;77.73;101698.53;5047754;28;20373;-57
2023/03/16 02:08:55;;;;;;;;;;;;;;;4.78;78.00;101701.72;5049222;28;19928;-57
2023/03/16 02:11:21;;;;;;;;;;;;;;;4.79;77.96;101700.94;5040178;28;19925;-56
2023/03/16 02:13:47;;;;;;;;;;;;;;;4.78;77.90;101702.63;5047237;28;19921;-61
2023/03/16 02:16:18;;;;;;;;;;;;;;;4.78;78.47;101694.97;5048280;28;20030;-56
2023/03/16 02:18:43;;;;;;;;;;;;;;;4.78;78.51;101702.63;5046519;28;20392;-56
2023/03/16 02:21:25;;;;;;;;;;;;;;;4.76;78.50;101695.66;5049209;28;19913;-56
2023/03/16 02:23:51;;;;;;;;;;;;;;;4.72;78.71;101686.94;5048276;28;20296;-56
2023/03/16 02:26:21;;;;;;;;;;;;;;;4.70;79.41;101683.41;5048093;28;19925;-56
2023/03/16 02:29:13;;;;;;;;;;;;;;;4.70;79.46;101680.88;5048061;28;19916;-56
2023/03/16 02:31:38;;;;;;;;;;;;;;;4.71;80.44;101694.47;5016820;28;20339;-56
2023/03/16 02:34:04;;;;;;;;;;;;;;;4.69;80.37;101689.28;5048553;28;20033;-57
2023/03/16 02:36:32;;;;;;;;;;;;;;;4.68;81.51;101687.53;5047728;28;19916;-56
2023/03/16 02:38:57;;;;;;;;;;;;;;;4.66;81.43;101689.09;5047446;28;20399;-56
2023/03/16 02:41:23;;;;;;;;;;;;;;;4.66;82.34;101691.63;5048797;28;20047;-57
2023/03/16 02:44:14;;;;;;;;;;;;;;;4.64;82.63;101688.13;5050471;28;19917;-57
2023/03/16 02:46:42;;;;;;;;;;;;;;;4.62;82.64;101687.16;5034422;28;20390;-56
2023/03/16 02:49:16;;;;;;;;;;;;;;;4.60;83.29;101686.13;5044780;28;19967;-57
2023/03/16 02:51:42;;;;;;;;;;;;;;;4.58;83.37;101686.03;5049447;28;20054;-56
2023/03/16 02:54:07;;;;;;;;;;;;;;;4.57;83.55;101691.94;5039434;28;19928;-56
2023/03/16 02:56:33;;;;;;;;;;;;;;;4.57;83.83;101686.84;5047454;28;20702;-57
2023/03/16 02:58:58;;;;;;;;;;;;;;;4.56;83.94;101682.53;5047274;28;19923;-57
2023/03/16 03:01:23;;;;;;;;;;;;;;;4.56;84.26;101676.56;5047600;28;19921;-57
2023/03/16 03:03:49;;;;;;;;;;;;;;;4.55;83.73;101673.13;5047101;28;20397;-56
2023/03/16 03:06:14;;;;;;;;;;;;;;;4.55;84.36;101674.75;5045489;28;20463;-57
2023/03/16 03:08:39;;;;;;;;;;;;;;;4.55;84.20;101672.22;5046948;28;19925;-57
2023/03/16 03:11:04;;;;;;;;;;;;;;;4.55;83.97;101667.13;5047873;28;19983;-57
2023/03/16 03:13:30;;;;;;;;;;;;;;;4.57;84.23;101671.56;5045459;28;19972;-57
2023/03/16 03:15:55;;;;;;;;;;;;;;;4.57;83.89;101671.56;5042503;28;19976;-59
2023/03/16 03:18:21;;;;;;;;;;;;;;;4.57;84.07;101671.56;5040207;28;20637;-56
2023/03/16 03:20:46;;;;;;;;;;;;;;;4.58;84.29;101663.13;5044417;28;20011;-57
2023/03/16 03:23:11;;;;;;;;;;;;;;;4.59;83.72;101666.53;5046602;28;19929;-59
2023/03/16 03:25:36;;;;;;;;;;;;;;;4.61;84.13;101661.53;5044550;28;20007;-57
2023/03/16 03:28:04;;;;;;;;;;;;;;;4.60;83.92;101662.34;5047394;28;20278;-57
2023/03/16 03:30:29;;;;;;;;;;;;;;;4.58;84.29;101650.38;5046005;28;19932;-57
2023/03/16 03:32:55;;;;;;;;;;;;;;;4.57;84.13;101652.84;5046548;28;19928;-56
2023/03/16 03:35:20;;;;;;;;;;;;;;;4.56;84.10;101651.97;5028783;28;20386;-56
2023/03/16 03:37:46;;;;;;;;;;;;;;;4.55;84.08;101650.22;5027380;28;19929;-56
2023/03/16 03:40:12;;;;;;;;;;;;;;;4.54;84.15;101656.06;5045720;28;19928;-61
2023/03/16 03:42:38;;;;;;;;;;;;;;;4.53;84.54;101654.28;5043382;28;19924;-58
2023/03/16 03:45:04;;;;;;;;;;;;;;;4.53;84.44;101649.19;5046564;28;20308;-61
2023/03/16 03:47:29;;;;;;;;;;;;;;;4.53;84.39;101651.75;5046396;28;19924;-56
2023/03/16 03:49:55;;;;;;;;;;;;;;;4.51;84.65;101642.25;5048052;28;20389;-56
2023/03/16 03:52:20;;;;;;;;;;;;;;;4.50;84.42;101649.03;5040061;28;19912;-56
2023/03/16 03:54:45;;;;;;;;;;;;;;;4.51;84.48;101650.78;5043966;28;19963;-56
2023/03/16 03:57:10;;;;;;;;;;;;;;;4.50;84.69;101643.94;5028349;28;19928;-56
2023/03/16 03:59:41;;;;;;;;;;;;;;;4.50;84.06;101649.03;5041204;28;19929;-57
2023/03/16 04:02:07;;;;;;;;;;;;;;;4.48;84.57;101640.38;5047964;28;19963;-58
2023/03/16 04:04:32;;;;;;;;;;;;;;;4.46;84.65;101633.44;5046487;28;19959;-56
2023/03/16 04:06:57;;;;;;;;;;;;;;;4.45;84.52;101640.19;5046771;28;19927;-57
2023/03/16 04:09:22;;;;;;;;;;;;;;;4.44;84.33;101628.25;5044890;28;19921;-57
2023/03/16 04:11:48;;;;;;;;;;;;;;;4.44;84.85;101637.56;5046065;28;19924;-57
2023/03/16 04:14:13;;;;;;;;;;;;;;;4.44;84.76;101630.78;5046439;28;20286;-57
2023/03/16 04:16:38;;;;;;;;;;;;;;;4.45;84.82;101627.47;5045265;28;19925;-56
2023/03/16 04:19:04;;;;;;;;;;;;;;;4.45;84.27;101624.91;5045533;28;20370;-57
2023/03/16 04:21:30;;;;;;;;;;;;;;;4.46;84.72;101624.13;5046039;28;19936;-57
2023/03/16 04:23:55;;;;;;;;;;;;;;;4.47;84.73;101619.91;5045507;28;19929;-57
2023/03/16 04:26:20;;;;;;;;;;;;;;;4.47;84.76;101623.34;5048299;28;20282;-57
2023/03/16 04:28:46;;;;;;;;;;;;;;;4.48;84.51;101625.09;5035687;28;19924;-57
2023/03/16 04:31:12;;;;;;;;;;;;;;;4.50;83.93;101622.66;5042800;28;19924;-57
2023/03/16 04:33:38;;;;;;;;;;;;;;;4.50;84.62;101620.13;5046281;28;19916;-57
2023/03/16 04:36:05;;;;;;;;;;;;;;;4.49;84.19;101621.78;5045597;28;20421;-56
2023/03/16 04:38:33;;;;;;;;;;;;;;;4.49;84.10;101621.78;5045071;28;20306;-57
2023/03/16 04:40:59;;;;;;;;;;;;;;;4.51;84.49;101620.22;5045733;28;20515;-56
2023/03/16 04:43:24;;;;;;;;;;;;;;;4.54;84.43;101614.44;5051971;28;19952;-57
2023/03/16 04:45:49;;;;;;;;;;;;;;;4.54;84.24;101617.84;5052441;28;20013;-58
2023/03/16 04:48:15;;;;;;;;;;;;;;;4.53;84.09;101613.53;5054058;28;20312;-49
2023/03/16 04:50:40;;;;;;;;;;;;;;;4.55;84.16;101613.63;5048807;28;20369;-53
2023/03/16 04:53:05;;;;;;;;;;;;;;;4.54;84.30;101622.06;5052684;28;20401;-53
2023/03/16 04:55:30;;;;;;;;;;;;;;;4.55;84.51;101613.63;5055974;28;19921;-53
2023/03/16 04:57:56;;;;;;;;;;;;;;;4.55;84.43;101616.19;5051867;28;19928;-54
2023/03/16 05:00:22;;;;;;;;;;;;;;;4.57;84.34;101617.19;5058831;28;20011;-54
2023/03/16 05:02:48;;;;;;;;;;;;;;;4.60;84.42;101611.38;5039592;28;20051;-52
2023/03/16 05:05:14;;;;;;;;;;;;;;;4.63;84.54;101606.50;5052506;28;20007;-55
2023/03/16 05:07:40;;;;;;;;;;;;;;;4.62;84.91;101608.19;5050058;28;20387;-54
2023/03/16 05:10:06;;;;;;;;;;;;;;;4.63;85.09;101603.97;5054735;28;19917;-53
2023/03/16 05:12:31;;;;;;;;;;;;;;;4.63;85.47;101609.06;5050779;28;20009;-54
2023/03/16 05:14:56;;;;;;;;;;;;;;;4.62;85.24;101599.66;5058933;28;19920;-54
2023/03/16 05:17:22;;;;;;;;;;;;;;;4.60;85.70;101604.63;5051907;28;19935;-58
2023/03/16 05:19:47;;;;;;;;;;;;;;;4.57;85.47;101599.34;5051154;28;19929;-52
2023/03/16 05:22:12;;;;;;;;;;;;;;;4.55;86.17;101598.34;5050595;28;19916;-53
2023/03/16 05:24:37;;;;;;;;;;;;;;;4.52;86.07;101591.41;5052531;28;20029;-54
2023/03/16 05:27:03;;;;;;;;;;;;;;;4.53;86.23;101595.72;5052168;28;19920;-53
2023/03/16 05:29:30;;;;;;;;;;;;;;;4.54;87.05;101594.94;5050670;28;19962;-54
2023/03/16 05:31:55;;;;;;;;;;;;;;;4.55;86.63;101598.34;5055322;28;20028;-54
2023/03/16 05:34:20;;;;;;;;;;;;;;;4.52;86.57;101598.16;5057705;28;20011;-54
2023/03/16 05:36:46;;;;;;;;;;;;;;;4.54;86.43;101594.94;5039912;28;19940;-54
2023/03/16 05:39:12;;;;;;;;;;;;;;;4.56;86.73;101592.50;5052461;28;19921;-52
2023/03/16 05:41:37;;;;;;;;;;;;;;;4.54;87.16;101584.75;5051981;28;19992;-53
2023/03/16 05:44:03;;;;;;;;;;;;;;;4.55;86.69;101583.06;5051857;28;20004;-54
2023/03/16 05:46:28;;;;;;;;;;;;;;;4.55;87.11;101578.88;5034784;28;19920;-54
2023/03/16 05:48:53;;;;;;;;;;;;;;;4.57;87.47;101574.75;5050695;28;19916;-53
2023/03/16 05:51:19;;;;;;;;;;;;;;;4.57;87.81;101574.75;5053291;28;19917;-53
2023/03/16 05:53:45;;;;;;;;;;;;;;;4.57;87.42;101568.78;5047244;28;19962;-52
2023/03/16 05:56:11;;;;;;;;;;;;;;;4.59;87.36;101572.31;5049500;28;19931;-53
2023/03/16 05:58:36;;;;;;;;;;;;;;;4.63;87.32;101576.81;5047714;28;20291;-54
2023/03/16 06:01:01;;;;;;;;;;;;;;;4.64;87.67;101570.06;5048112;28;19928;-54
2023/03/16 06:03:27;;;;;;;;;;;;;;;4.65;88.03;101567.59;5048501;28;19921;-52
2023/03/16 06:05:52;;;;;;;;;;;;;;;4.66;88.36;101571.91;5048928;28;19920;-53
2023/03/16 06:08:17;;;;;;;;;;;;;;;4.64;87.99;101568.38;5049078;28;19917;-53
2023/03/16 06:10:45;;;;;;;;;;;;;;;4.64;88.45;101570.06;5040410;28;19947;-53
2023/03/16 06:13:10;;;;;;;;;;;;;;;4.64;88.57;101568.38;5048499;28;20294;-58
2023/03/16 06:15:35;;;;;;;;;;;;;;;4.63;88.17;101574.28;5048035;28;19928;-56
2023/03/16 06:18:00;;;;;;;;;;;;;;;4.65;88.39;101570.16;5043425;28;19932;-51
2023/03/16 06:20:26;;;;;;;;;;;;;;;4.63;88.22;101570.84;5050016;28;19938;-52
2023/03/16 06:22:51;;;;;;;;;;;;;;;4.63;88.29;101569.19;5048406;28;20408;-52
2023/03/16 06:25:17;;;;;;;;;;;;;;;4.62;88.16;101582.69;5047324;28;20019;-54
2023/03/16 06:27:42;;;;;;;;;;;;;;;4.62;88.73;101575.06;5049758;28;19923;-55
2023/03/16 06:30:10;;;;;;;;;;;;;;;4.62;88.63;101569.09;5048390;28;19932;-54
2023/03/16 06:32:36;;;;;;;;;;;;;;;4.64;88.68;101570.94;5046848;28;19927;-52
2023/03/16 06:35:02;;;;;;;;;;;;;;;4.65;88.20;101564.16;5046849;28;20280;-52
2023/03/16 06:37:28;;;;;;;;;;;;;;;4.67;88.83;101573.69;5048917;28;19928;-53
2023/03/16 06:39:53;;;;;;;;;;;;;;;4.68;88.62;101569.47;5046514;28;19944;-53
2023/03/16 06:42:19;;;;;;;;;;;;;;;4.69;88.85;101564.47;5049926;28;19921;-54
2023/03/16 06:44:44;;;;;;;;;;;;;;;4.72;89.40;101564.66;5039538;28;19935;-53
2023/03/16 06:47:09;;;;;;;;;;;;;;;4.77;89.68;101576.00;5045227;28;19927;-53
2023/03/16 06:49:34;;;;;;;;;;;;;;;4.79;89.81;101574.47;5046601;28;19932;-51
2023/03/16 06:52:02;;;;;;;;;;;;;;;4.80;89.53;101568.56;5048590;28;19920;-53
2023/03/16 06:54:27;;;;;;;;;;;;;;;4.81;89.66;101561.81;5048177;28;19928;-54
2023/03/16 06:56:52;;;;;;;;;;;;;;;4.82;89.88;101561.00;5047155;28;19925;-53
2023/03/16 06:59:17;;;;;;;;;;;;;;;4.82;89.60;101556.78;5047761;28;19917;-50
2023/03/16 07:01:43;;;;;;;;;;;;;;;4.87;89.96;101561.31;5047053;28;19927;-56
2023/03/16 07:04:09;;;;;;;;;;;;;;;4.89;89.79;101563.16;5047122;28;19952;-56
2023/03/16 07:06:34;;;;;;;;;;;;;;;4.95;90.05;101555.00;5047147;28;20381;-53
2023/03/16 07:09:00;;;;;;;;;;;;;;;5.02;90.06;101552.03;5046511;28;19916;-53
2023/03/16 07:11:25;;;;;;;;;;;;;;;5.05;89.78;101555.66;5048348;28;19917;-53
2023/03/16 07:13:51;;;;;;;;;;;;;;;5.07;88.58;101550.66;5047910;28;19948;-52
2023/03/16 07:16:16;;;;;;;;;;;;;;;5.10;89.39;101553.41;5049492;28;19928;-54
2023/03/16 07:18:43;;;;;;;;;;;;;;;5.10;89.50;101548.31;5039013;28;20406;-57
2023/03/16 07:21:08;;;;;;;;;;;;;;;5.11;89.43;101550.06;5042634;28;19924;-51
2023/03/16 07:23:33;;;;;;;;;;;;;;;5.14;88.89;101545.13;5044799;28;19920;-56
2023/03/16 07:25:59;;;;;;;;;;;;;;;5.19;89.76;101543.75;5047232;28;19917;-52
2023/03/16 07:28:25;;;;;;;;;;;;;;;5.24;89.96;101539.81;5046280;28;19928;-53
2023/03/16 07:30:50;;;;;;;;;;;;;;;5.29;89.21;101540.97;5046473;28;19921;-53
2023/03/16 07:33:16;;;;;;;;;;;;;;;5.31;88.48;101535.97;5047192;28;19928;-51
2023/03/16 07:35:41;;;;;;;;;;;;;;;5.34;89.16;101539.59;5046481;28;20020;-52
2023/03/16 07:38:09;;;;;;;;;;;;;;;5.38;89.28;101535.53;5046268;28;19967;-53
2023/03/16 07:40:34;;;;;;;;;;;;;;;5.42;89.18;101529.84;5045780;28;19940;-57
2023/03/16 07:43:00;;;;;;;;;;;;;;;5.45;87.74;101534.22;5044831;28;19921;-59
2023/03/16 07:45:25;;;;;;;;;;;;;;;5.46;88.32;101538.53;5043650;28;20389;-59
2023/03/16 07:47:50;;;;;;;;;;;;;;;5.47;88.07;101532.66;5046033;28;19917;-54
2023/03/16 07:50:18;;;;;;;;;;;;;;;5.49;87.31;101531.94;5047673;28;19930;-53
2023/03/16 07:52:44;;;;;;;;;;;;;;;5.52;87.00;101539.81;5036952;28;19998;-53
2023/03/16 07:55:10;;;;;;;;;;;;;;;5.55;86.87;101536.53;5047596;28;19928;-54
2023/03/16 07:57:38;;;;;;;;;;;;;;;5.58;87.23;101534.16;5046504;28;19917;-52
2023/03/16 08:00:04;;;;;;;;;;;;;;;5.61;87.33;101526.69;5043282;28;19925;-52
2023/03/16 08:02:29;;;;;;;;;;;;;;;5.65;85.98;101532.06;5047081;28;19962;-52
2023/03/16 08:04:55;;;;;;;;;;;;;;;5.68;86.64;101527.94;5048372;28;20018;-52
2023/03/16 08:07:20;;;;;;;;;;;;;;;5.76;86.91;101530.13;5045545;28;19955;-52
2023/03/16 08:09:45;;;;;;;;;;;;;;;5.85;86.84;101527.22;5044029;28;20249;-54
2023/03/16 08:12:11;;;;;;;;;;;;;;;5.94;85.44;101532.00;5044449;28;20029;-53
2023/03/16 08:14:36;;;;;;;;;;;;;;;5.99;83.92;101522.94;5046240;28;19929;-51
2023/03/16 08:17:03;;;;;;;;;;;;;;;6.03;83.10;101519.78;5043486;28;20344;-52
2023/03/16 08:19:28;;;;;;;;;;;;;;;6.08;82.89;101534.56;5044904;28;20377;-54
2023/03/16 08:21:53;;;;;;;;;;;;;;;6.10;81.78;101532.97;5043681;28;19916;-52
2023/03/16 08:24:19;;;;;;;;;;;;;;;6.15;82.28;101535.78;5047116;28;19925;-50
2023/03/16 08:26:44;;;;;;;;;;;;;;;6.21;81.67;101530.16;5035865;28;19979;-53
2023/03/16 08:29:10;;;;;;;;;;;;;;;6.23;79.82;101534.53;5042560;28;20011;-52
2023/03/16 08:31:35;;;;;;;;;;;;;;;6.24;80.48;101541.41;5045402;28;19956;-52
2023/03/16 08:34:01;;;;;;;;;;;;;;;6.26;80.93;101538.97;5041383;28;19916;-52
2023/03/16 08:36:30;;;;;;;;;;;;;;;6.30;80.50;101544.31;5046984;28;20266;-53
2023/03/16 08:38:55;;;;;;;;;;;;;;;6.37;79.03;101537.84;5039456;28;19976;-53
2023/03/16 08:41:21;;;;;;;;;;;;;;;6.44;79.47;101543.41;5044238;28;20002;-53
2023/03/16 08:43:46;;;;;;;;;;;;;;;6.50;78.25;101542.00;5044080;28;19963;-52
2023/03/16 08:46:14;;;;;;;;;;;;;;;6.51;77.35;101538.66;5039595;28;19917;-53
2023/03/16 08:48:40;;;;;;;;;;;;;;;6.57;77.38;101538.97;5044983;28;19959;-52
2023/03/16 08:51:06;;;;;;;;;;;;;;;6.65;77.04;101541.16;5045922;28;20370;-53
2023/03/16 08:53:31;;;;;;;;;;;;;;;6.74;77.34;101535.66;5043252;28;20254;-52
2023/03/16 08:56:00;;;;;;;;;;;;;;;6.81;75.56;101527.53;5046194;28;19928;-54
2023/03/16 08:58:26;;;;;;;;;;;;;;;6.83;76.37;101515.69;5044707;28;20471;-53
2023/03/16 09:00:51;;;;;;;;;;;;;;;6.87;76.05;101532.97;5039668;28;20397;-54
2023/03/16 09:03:18;;;;;;;;;;;;;;;6.89;75.22;101520.25;5046850;28;19917;-52
2023/03/16 09:05:44;;;;;;;;;;;;;;;6.86;76.10;101515.88;5044840;28;20396;-54
2023/03/16 09:08:09;;;;;;;;;;;;;;;6.87;75.17;101512.53;5043602;28;20010;-52
2023/03/16 09:10:35;;;;;;;;;;;;;;;6.91;76.00;101511.88;5044002;28;19933;-53
2023/03/16 09:13:01;;;;;;;;;;;;;;;6.98;75.08;101507.97;5044456;28;20337;-52
2023/03/16 09:15:28;;;;;;;;;;;;;;;7.04;74.66;101507.41;5042375;28;19924;-52
2023/03/16 09:17:53;;;;;;;;;;;;;;;7.10;75.33;101505.16;5045433;28;20307;-52
2023/03/16 09:20:19;;;;;;;;;;;;;;;7.18;74.90;101509.00;5043574;28;19921;-52
2023/03/16 09:22:45;;;;;;;;;;;;;;;7.31;73.53;101513.09;5041475;28;19925;-52
2023/03/16 09:25:11;;;;;;;;;;;;;;;7.42;73.49;101512.84;5044815;28;19920;-49
2023/03/16 09:27:36;;;;;;;;;;;;;;;7.53;71.30;101510.84;5044454;28;19921;-51
2023/03/16 09:30:06;;;;;;;;;;;;;;;7.71;70.70;101509.19;5049412;28;19946;-51
2023/03/16 09:32:32;;;;;;;;;;;;;;;8.00;70.29;101507.16;5039970;28;19975;-53
2023/03/16 09:34:58;;;;;;;;;;;;;;;8.31;69.93;101502.72;5046837;28;19920;-51
2023/03/16 09:37:24;;;;;;;;;;;;;;;8.56;68.67;101501.34;5047054;28;19925;-52
2023/03/16 09:39:50;;;;;;;;;;;;;;;8.71;68.16;101501.16;5046454;28;19961;-50
2023/03/16 09:42:18;;;;;;;;;;;;;;;8.77;66.67;101499.75;5044663;28;19955;-51
2023/03/16 09:44:46;;;;;;;;;;;;;;;8.81;65.08;101493.97;5046203;28;20435;-52
2023/03/16 09:47:13;;;;;;;;;;;;;;;8.82;65.84;101502.53;5049319;28;20386;-53
2023/03/16 09:49:46;;;;;;;;;;;;;;;8.90;64.17;101501.16;5047916;28;19925;-57
2023/03/16 09:52:30;;;;;;;;;;;;;;;9.39;63.20;101504.19;5046819;28;19956;-52
2023/03/16 09:54:58;;;;;;;;;;;;;;;10.18;61.10;101492.88;5047029;28;20369;-53
2023/03/16 09:57:28;;;;;;;;;;;;;;;10.85;58.77;101490.34;5048855;28;20384;-52
2023/03/16 09:59:59;;;;;;;;;;;;;;;11.44;56.86;101495.91;5048817;28;19927;-54
2023/03/16 10:02:38;;;;;;;;;;;;;;;11.89;56.31;101487.97;5046675;28;20452;-53
2023/03/16 10:05:06;;;;;;;;;;;;;;;12.11;53.61;101480.13;5047842;28;19917;-54
2023/03/16 10:07:32;;;;;;;;;;;;;;;11.84;52.68;101480.13;5040861;28;19924;-54
2023/03/16 10:10:09;;;;;;;;;;;;;;;11.36;53.23;101484.47;5044925;28;19920;-53
2023/03/16 10:12:40;;;;;;;;;;;;;;;13.09;51.89;101470.97;5047005;28;19924;-52
2023/03/16 10:15:06;;;;;;;;;;;;;;;15.45;44.88;101458.25;5049001;28;19917;-53
2023/03/16 10:17:34;;;;;;;;;;;;;;;17.30;41.18;101459.16;5046971;28;20473;-54
2023/03/16 10:20:01;;;;;;;;;;;;;;;18.42;37.83;101444.41;5048035;28;20467;-54
2023/03/16 10:22:29;;;;;;;;;;;;;;;17.94;38.85;101438.91;5046728;28;19920;-53
2023/03/16 10:25:00;;;;;;;;;;;;;;;17.26;38.56;101446.09;5049074;28;19927;-55
2023/03/16 10:27:33;;;;;;;;;;;;;;;16.34;39.87;101453.63;5028500;28;20512;-55
2023/03/16 10:30:00;;;;;;;;;;;;;;;16.00;40.11;101454.88;5045720;28;19917;-53
2023/03/16 10:32:30;;;;;;;;;;;;;;;17.27;39.01;101446.09;5049753;28;20515;-53
2023/03/16 10:34:59;;;;;;;;;;;;;;;18.36;37.94;101442.63;5047002;28;20272;-54
2023/03/16 10:37:27;;;;;;;;;;;;;;;19.02;35.69;101443.78;5046243;28;19928;-54
2023/03/16 10:39:53;;;;;;;;;;;;;;;19.08;35.24;101442.94;5049464;28;19917;-54
2023/03/16 10:42:20;;;;;;;;;;;;;;;19.11;37.53;101437.75;5039273;28;19925;-54
2023/03/16 10:44:45;;;;;;;;;;;;;;;20.32;33.39;101428.16;5044492;28;20000;-54
2023/03/16 10:47:16;;;;;;;;;;;;;;;21.11;31.75;101433.88;5048463;28;20059;-54
2023/03/16 10:49:47;;;;;;;;;;;;;;;21.54;30.58;101421.41;5047088;28;20214;-54
2023/03/16 10:52:22;;;;;;;;;;;;;;;21.16;31.38;101424.25;5046136;28;19925;-53
2023/03/16 10:54:59;;;;;;;;;;;;;;;20.20;32.15;101425.53;5046744;28;20396;-54
2023/03/16 10:57:32;;;;;;;;;;;;;;;18.87;34.39;101420.31;5048140;28;19917;-54
2023/03/16 11:00:12;;;;;;;;;;;;;;;17.66;36.33;101423.94;5047073;28;19919;-55
2023/03/16 11:02:38;;;;;;;;;;;;;;;16.55;37.43;101416.69;5045152;28;20019;-54
2023/03/16 11:05:16;;;;;;;;;;;;;;;15.52;40.17;101416.03;5046878;28;20445;-51
2023/03/16 11:07:48;;;;;;;;;;;;;;;14.78;41.83;101410.38;5048125;28;19921;-54
2023/03/16 11:10:25;;;;;;;;;;;;;;;14.33;42.82;101406.84;5048044;28;19924;-54
2023/03/16 11:12:51;;;;;;;;;;;;;;;13.92;43.54;101404.22;5047915;28;19962;-54
2023/03/16 11:15:17;;;;;;;;;;;;;;;13.58;44.59;101407.69;5040144;28;19928;-55
2023/03/16 11:17:44;;;;;;;;;;;;;;;13.22;44.84;101399.03;5044418;28;19994;-54
2023/03/16 11:20:16;;;;;;;;;;;;;;;12.87;45.46;101392.09;5045515;28;19920;-55
2023/03/16 11:22:44;;;;;;;;;;;;;;;12.75;47.07;101396.03;5038631;28;20073;-54
2023/03/16 11:25:09;;;;;;;;;;;;;;;12.75;46.82;101375.41;5045171;28;20019;-54
2023/03/16 11:27:53;;;;;;;;;;;;;;;12.71;47.28;101377.00;5046143;28;20004;-54
2023/03/16 11:30:37;;;;;;;;;;;;;;;12.76;47.56;101388.34;5047561;28;19917;-53
2023/03/16 11:33:08;;;;;;;;;;;;;;;12.60;46.84;101384.44;5047259;28;19925;-55
2023/03/16 11:35:52;;;;;;;;;;;;;;;12.43;47.30;101382.22;5047015;28;19924;-55
2023/03/16 11:38:41;;;;;;;;;;;;;;;12.51;49.28;101373.00;5047444;28;20385;-55
2023/03/16 11:41:10;;;;;;;;;;;;;;;12.58;49.06;101362.03;5036153;28;19913;-55
2023/03/16 11:43:41;;;;;;;;;;;;;;;12.60;48.09;101368.09;5045616;28;20305;-55
2023/03/16 11:46:12;;;;;;;;;;;;;;;12.54;48.07;101362.75;5047976;28;19920;-55
2023/03/16 11:48:38;;;;;;;;;;;;;;;12.50;48.09;101360.97;5040448;28;20298;-53
2023/03/16 11:51:05;;;;;;;;;;;;;;;12.48;48.09;101355.72;5042083;28;19929;-55
2023/03/16 11:53:36;;;;;;;;;;;;;;;12.53;47.57;101359.31;5046716;28;20343;-54
2023/03/16 11:56:10;;;;;;;;;;;;;;;12.52;47.83;101349.84;5047001;28;19951;-55
2023/03/16 11:58:38;;;;;;;;;;;;;;;12.47;46.99;101360.84;5042987;28;19935;-54
2023/03/16 12:01:12;;;;;;;;;;;;;;;12.50;47.91;101350.63;5044343;28;19917;-55
2023/03/16 12:03:52;;;;;;;;;;;;;;;12.63;48.54;101344.97;5046393;28;19917;-55
2023/03/16 12:06:37;;;;;;;;;;;;;;;12.73;47.74;101341.78;5046842;28;20321;-55
2023/03/16 12:09:29;;;;;;;;;;;;;;;12.82;47.25;101328.28;5045487;28;19917;-55
2023/03/16 12:11:57;;;;;;;;;;;;;;;12.88;46.74;101334.47;5046384;28;19927;-55
2023/03/16 12:14:23;;;;;;;;;;;;;;;12.96;47.71;101329.50;5041355;28;19928;-56
2023/03/16 12:16:51;;;;;;;;;;;;;;;13.05;46.27;101324.59;5046711;28;20003;-54
2023/03/16 12:19:21;;;;;;;;;;;;;;;13.19;47.52;101321.47;5042602;28;20364;-55
2023/03/16 12:21:48;;;;;;;;;;;;;;;13.47;47.14;101308.41;5042751;28;19928;-55
2023/03/16 12:24:18;;;;;;;;;;;;;;;13.72;46.69;101312.44;5020637;28;20032;-54
2023/03/16 12:26:44;;;;;;;;;;;;;;;14.03;45.23;101311.38;5045840;28;19920;-55
2023/03/16 12:29:36;;;;;;;;;;;;;;;14.21;44.90;101308.31;5047370;28;21005;-54
2023/03/16 12:32:07;;;;;;;;;;;;;;;14.52;43.36;101303.75;5041270;28;20404;-55
2023/03/16 12:34:49;;;;;;;;;;;;;;;14.59;44.81;101301.31;5045852;28;20419;-55
2023/03/16 12:37:17;;;;;;;;;;;;;;;14.69;43.86;101298.06;5046164;28;19929;-55
2023/03/16 12:40:08;;;;;;;;;;;;;;;14.81;42.63;101293.94;5045364;28;20007;-55
2023/03/16 12:42:52;;;;;;;;;;;;;;;14.69;43.92;101282.53;5031819;28;19923;-55
2023/03/16 12:45:17;;;;;;;;;;;;;;;14.73;43.16;101284.31;5045544;28;20006;-55
2023/03/16 12:47:52;;;;;;;;;;;;;;;14.62;41.79;101274.59;5045921;28;19967;-56